Time;durP1;ratioP1;P1;durP2;ratioP2;P2;SDS_P1;SDS_P2;PMS_P1;PMS_P2;Temp;Humidity;BMP_temperature;BMP_pressure;BME280_temperature;BME280_humidity;BME280_pressure;Samples;Min_cycle;Max_cycle;Signal;HPM_P1;HPM_P2
2023/01/23 00:01:29;;;;;;;;;;;;;;;8.93;50.31;103627.03;6240001;22;19911;-85
2023/01/23 00:03:55;;;;;;;;;;;;;;;8.91;50.15;103631.72;6240324;23;19908;-85
2023/01/23 00:06:20;;;;;;;;;;;;;;;8.91;50.33;103637.06;6240737;23;19973;-85
2023/01/23 00:08:46;;;;;;;;;;;;;;;8.91;50.46;103639.75;6240128;23;20421;-85
2023/01/23 00:11:15;;;;;;;;;;;;;;;8.93;50.37;103643.06;6239820;22;19994;-85
2023/01/23 00:13:41;;;;;;;;;;;;;;;8.96;50.54;103640.06;6241859;23;19908;-85
2023/01/23 00:16:08;;;;;;;;;;;;;;;8.96;50.31;103637.41;6240535;23;19962;-85
2023/01/23 00:18:33;;;;;;;;;;;;;;;8.97;50.23;103645.25;6240638;23;19915;-85
2023/01/23 00:21:02;;;;;;;;;;;;;;;8.98;50.21;103638.94;6240607;22;19915;-85
2023/01/23 00:23:28;;;;;;;;;;;;;;;8.99;50.11;103640.59;6240848;23;20316;-85
2023/01/23 00:25:53;;;;;;;;;;;;;;;9.01;50.39;103637.75;6240832;23;19914;-85
2023/01/23 00:28:19;;;;;;;;;;;;;;;9.00;49.95;103638.75;6240193;23;20344;-85
2023/01/23 00:30:44;;;;;;;;;;;;;;;8.99;50.03;103637.91;6241813;22;19911;-85
2023/01/23 00:33:09;;;;;;;;;;;;;;;8.99;50.05;103640.59;6241078;23;20029;-86
2023/01/23 00:35:35;;;;;;;;;;;;;;;9.01;50.06;103645.78;6240952;23;19969;-85
2023/01/23 00:38:00;;;;;;;;;;;;;;;8.99;50.34;103640.59;6239752;23;19908;-85
2023/01/23 00:40:25;;;;;;;;;;;;;;;9.00;50.23;103644.09;6240976;22;20012;-85
2023/01/23 00:42:52;;;;;;;;;;;;;;;8.98;50.02;103646.94;6240842;23;19914;-85
2023/01/23 00:45:17;;;;;;;;;;;;;;;8.98;50.23;103646.94;6240171;23;19923;-85
2023/01/23 00:47:43;;;;;;;;;;;;;;;8.97;50.35;103650.59;6240097;23;19915;-85
2023/01/23 00:50:08;;;;;;;;;;;;;;;8.98;50.29;103654.13;6239348;22;19994;-85
2023/01/23 00:52:34;;;;;;;;;;;;;;;8.99;49.96;103653.97;6240849;23;20298;-85
2023/01/23 00:54:59;;;;;;;;;;;;;;;8.96;50.13;103659.63;6240538;23;20335;-85
2023/01/23 00:57:24;;;;;;;;;;;;;;;8.95;50.16;103654.44;6239722;23;19926;-86
2023/01/23 00:59:50;;;;;;;;;;;;;;;8.95;50.38;103657.13;6240515;22;20209;-85
2023/01/23 01:02:15;;;;;;;;;;;;;;;8.95;49.94;103662.47;6239522;23;20007;-85
2023/01/23 01:04:40;;;;;;;;;;;;;;;8.94;50.34;103660.78;6240125;23;19907;-85
2023/01/23 01:07:06;;;;;;;;;;;;;;;8.94;50.17;103656.28;6239014;23;19965;-86
2023/01/23 01:09:31;;;;;;;;;;;;;;;8.95;50.00;103652.59;6240629;23;19915;-85
2023/01/23 01:11:57;;;;;;;;;;;;;;;8.96;50.50;103658.78;6241233;22;19908;-85
2023/01/23 01:14:22;;;;;;;;;;;;;;;8.97;50.46;103655.09;6239897;23;20314;-86
2023/01/23 01:16:47;;;;;;;;;;;;;;;8.97;50.35;103661.28;6239883;23;19994;-86
2023/01/23 01:19:14;;;;;;;;;;;;;;;8.97;49.87;103657.78;6239484;23;19919;-85
2023/01/23 01:21:41;;;;;;;;;;;;;;;8.97;50.35;103663.13;6241571;22;19908;-85
2023/01/23 01:24:06;;;;;;;;;;;;;;;8.95;49.97;103659.78;6238339;23;19918;-85
2023/01/23 01:26:32;;;;;;;;;;;;;;;8.92;49.91;103668.97;6239502;23;19912;-85
2023/01/23 01:28:57;;;;;;;;;;;;;;;8.91;50.00;103677.19;6238954;23;20331;-85
2023/01/23 01:31:23;;;;;;;;;;;;;;;8.88;49.94;103681.03;6240987;22;19919;-85
2023/01/23 01:33:49;;;;;;;;;;;;;;;8.88;49.98;103682.84;6240529;23;19961;-85
2023/01/23 01:36:16;;;;;;;;;;;;;;;8.87;49.98;103684.69;6239140;23;20411;-85
2023/01/23 01:38:42;;;;;;;;;;;;;;;8.89;50.19;103684.53;6239893;23;20312;-85
2023/01/23 01:41:07;;;;;;;;;;;;;;;8.88;50.08;103678.34;6239088;22;19911;-85
2023/01/23 01:43:34;;;;;;;;;;;;;;;8.89;50.40;103679.19;6240215;23;19911;-85
2023/01/23 01:45:59;;;;;;;;;;;;;;;8.87;50.17;103682.03;6238850;23;19912;-85
2023/01/23 01:48:29;;;;;;;;;;;;;;;8.85;50.11;103676.00;6238778;23;19939;-85
2023/01/23 01:50:55;;;;;;;;;;;;;;;8.84;50.25;103674.34;6240767;22;19942;-85
2023/01/23 01:53:22;;;;;;;;;;;;;;;8.85;50.39;103675.19;6239397;23;20332;-85
2023/01/23 01:55:48;;;;;;;;;;;;;;;8.85;50.08;103672.50;6240108;23;19935;-86
2023/01/23 01:58:14;;;;;;;;;;;;;;;8.84;50.21;103673.50;6238943;23;20436;-85
2023/01/23 02:00:39;;;;;;;;;;;;;;;8.84;50.24;103676.19;6240363;22;19908;-85
2023/01/23 02:03:05;;;;;;;;;;;;;;;8.85;50.11;103680.53;6239012;23;19954;-85
2023/01/23 02:05:34;;;;;;;;;;;;;;;8.85;50.27;103683.19;6240613;23;19908;-85
2023/01/23 02:08:09;;;;;;;;;;;;;;;8.86;50.26;103676.84;6212558;23;19912;-85
2023/01/23 02:10:36;;;;;;;;;;;;;;;8.85;49.96;103681.34;6241579;22;19907;-85
2023/01/23 02:13:16;;;;;;;;;;;;;;;8.84;49.84;103681.53;6212085;23;20285;-85
2023/01/23 02:15:42;;;;;;;;;;;;;;;8.82;50.10;103686.19;6240473;23;19961;-85
2023/01/23 02:18:07;;;;;;;;;;;;;;;8.83;50.07;103688.72;6238508;23;19919;-85
2023/01/23 02:20:32;;;;;;;;;;;;;;;8.84;50.29;103686.88;6239951;22;19994;-85
2023/01/23 02:23:11;;;;;;;;;;;;;;;8.84;50.27;103686.88;6239509;23;20243;-85
2023/01/23 02:25:36;;;;;;;;;;;;;;;8.83;50.00;103686.03;6239255;23;20213;-85
2023/01/23 02:28:01;;;;;;;;;;;;;;;8.83;50.11;103687.88;6239022;23;19923;-85
2023/01/23 02:30:27;;;;;;;;;;;;;;;8.82;50.33;103694.22;6240434;22;19957;-85
2023/01/23 02:32:52;;;;;;;;;;;;;;;8.82;50.28;103688.88;6239855;23;20371;-85
2023/01/23 02:35:25;;;;;;;;;;;;;;;8.82;50.22;103697.72;6240034;23;19990;-84
2023/01/23 02:37:52;;;;;;;;;;;;;;;8.80;50.17;103702.41;6239133;23;19907;-85
2023/01/23 02:40:17;;;;;;;;;;;;;;;8.79;50.35;103695.34;6239244;22;20359;-85
2023/01/23 02:42:45;;;;;;;;;;;;;;;8.81;50.37;103695.22;6240381;23;19918;-85
2023/01/23 02:45:10;;;;;;;;;;;;;;;8.81;50.29;103700.56;6238636;23;19995;-85
2023/01/23 02:47:35;;;;;;;;;;;;;;;8.81;50.11;103692.56;6239204;23;19942;-85
2023/01/23 02:50:01;;;;;;;;;;;;;;;8.80;50.21;103707.75;6239458;22;19908;-85
2023/01/23 02:52:26;;;;;;;;;;;;;;;8.82;49.93;103704.91;6239757;23;19965;-85
2023/01/23 02:54:52;;;;;;;;;;;;;;;8.79;50.32;103706.88;6238697;23;19908;-85
2023/01/23 02:57:17;;;;;;;;;;;;;;;8.81;49.88;103700.56;6238872;23;19960;-84
2023/01/23 03:02:26;;;;;;;;;;;;;;;8.78;49.89;103699.03;6240706;23;20302;-85
2023/01/23 03:04:52;;;;;;;;;;;;;;;8.78;50.02;103702.53;6237323;23;19986;-85
2023/01/23 03:07:17;;;;;;;;;;;;;;;8.78;50.04;103699.88;6237893;23;19918;-85
2023/01/23 03:09:45;;;;;;;;;;;;;;;8.79;49.98;103704.22;6240389;22;19915;-85
2023/01/23 03:12:10;;;;;;;;;;;;;;;8.80;50.10;103702.41;6239194;23;19911;-85
2023/01/23 03:14:36;;;;;;;;;;;;;;;8.78;50.07;103710.56;6239492;23;19996;-85
2023/01/23 03:17:01;;;;;;;;;;;;;;;8.78;50.20;103715.06;6239502;23;19912;-85
2023/01/23 03:19:27;;;;;;;;;;;;;;;8.77;50.33;103711.56;6237919;23;19961;-85
2023/01/23 03:21:53;;;;;;;;;;;;;;;8.77;49.88;103714.25;6238760;22;19912;-85
2023/01/23 03:24:19;;;;;;;;;;;;;;;8.79;50.26;103717.59;6239902;23;19960;-85
2023/01/23 03:26:45;;;;;;;;;;;;;;;8.79;50.21;103714.91;6239849;23;20306;-85
2023/01/23 03:31:59;;;;;;;;;;;;;;;8.76;50.01;103723.25;6238236;22;19957;-85
2023/01/23 03:34:24;;;;;;;;;;;;;;;8.74;50.24;103719.91;6239584;23;19916;-85
2023/01/23 03:36:50;;;;;;;;;;;;;;;8.74;49.96;103727.09;6212219;23;19941;-85
2023/01/23 03:41:59;;;;;;;;;;;;;;;8.71;49.97;103722.94;6241288;22;20021;-85
2023/01/23 03:44:24;;;;;;;;;;;;;;;8.71;50.24;103720.25;6241915;23;20242;-85
2023/01/23 03:46:50;;;;;;;;;;;;;;;8.70;49.87;103729.28;6241482;23;19915;-85
2023/01/23 03:49:16;;;;;;;;;;;;;;;8.70;49.86;103726.59;6240695;23;19998;-85
2023/01/23 03:51:42;;;;;;;;;;;;;;;8.71;50.17;103722.94;6240012;22;19911;-85
2023/01/23 03:54:07;;;;;;;;;;;;;;;8.71;50.16;103722.09;6240557;23;20413;-85
2023/01/23 03:56:32;;;;;;;;;;;;;;;8.71;50.29;103725.59;6242050;23;19919;-85
2023/01/23 03:58:58;;;;;;;;;;;;;;;8.69;50.01;103724.94;6240225;23;19914;-85
2023/01/23 04:01:24;;;;;;;;;;;;;;;8.67;49.81;103723.41;6241728;22;19908;-85
2023/01/23 04:03:49;;;;;;;;;;;;;;;8.65;50.18;103720.91;6240404;23;19957;-85
2023/01/23 04:06:14;;;;;;;;;;;;;;;8.65;50.12;103734.28;6237802;23;19912;-85
2023/01/23 04:08:40;;;;;;;;;;;;;;;8.62;50.20;103726.59;6240773;23;19912;-85
2023/01/23 04:11:06;;;;;;;;;;;;;;;8.63;50.02;103732.78;6243169;22;19912;-85
2023/01/23 04:13:32;;;;;;;;;;;;;;;8.61;50.25;103738.25;6242767;23;19914;-84
2023/01/23 04:15:58;;;;;;;;;;;;;;;8.62;50.22;103747.13;6243300;23;20344;-84
2023/01/23 04:18:23;;;;;;;;;;;;;;;8.62;50.37;103750.66;6242719;23;19912;-84
2023/01/23 04:20:48;;;;;;;;;;;;;;;8.64;50.18;103750.47;6243029;22;19907;-85
2023/01/23 04:23:14;;;;;;;;;;;;;;;8.63;50.33;103743.47;6241736;22;19924;-87
2023/01/23 04:25:39;;;;;;;;;;;;;;;8.64;50.10;103750.47;6243735;22;20339;-87
2023/01/23 04:28:07;;;;;;;;;;;;;;;8.63;50.23;103746.13;6243224;22;19915;-87
2023/01/23 04:30:32;;;;;;;;;;;;;;;8.64;50.30;103748.66;6244149;22;19914;-87
2023/01/23 04:32:57;;;;;;;;;;;;;;;8.64;49.99;103748.66;6233300;22;19908;-87
2023/01/23 04:35:23;;;;;;;;;;;;;;;8.63;50.27;103754.16;6213565;23;19966;-87
2023/01/23 04:37:48;;;;;;;;;;;;;;;8.64;50.13;103753.16;6213908;23;19908;-87
2023/01/23 04:40:14;;;;;;;;;;;;;;;8.64;50.35;103756.66;6212323;23;19908;-87
2023/01/23 04:42:39;;;;;;;;;;;;;;;8.64;50.29;103762.00;6213821;23;20324;-87
2023/01/23 04:45:05;;;;;;;;;;;;;;;8.64;49.86;103766.53;6212976;23;19919;-87
2023/01/23 04:47:31;;;;;;;;;;;;;;;8.64;50.13;103769.19;6213699;23;19926;-87
2023/01/23 04:49:56;;;;;;;;;;;;;;;8.66;50.13;103776.03;6213509;23;19912;-87
2023/01/23 04:52:22;;;;;;;;;;;;;;;8.66;50.07;103773.38;6213632;23;19912;-88
2023/01/23 04:54:47;;;;;;;;;;;;;;;8.66;49.81;103770.69;6213699;23;19939;-87
2023/01/23 04:57:12;;;;;;;;;;;;;;;8.67;49.89;103769.69;6214101;23;19922;-88
2023/01/23 04:59:38;;;;;;;;;;;;;;;8.68;50.03;103767.84;6212571;23;19915;-88
2023/01/23 05:02:03;;;;;;;;;;;;;;;8.68;50.06;103775.88;6211978;23;19916;-88
2023/01/23 05:04:28;;;;;;;;;;;;;;;8.65;49.96;103774.38;6212503;23;20340;-87
2023/01/23 05:06:54;;;;;;;;;;;;;;;8.64;50.09;103777.22;6212372;23;19987;-87
2023/01/23 05:09:19;;;;;;;;;;;;;;;8.63;50.02;103770.19;6211994;23;19908;-87
2023/01/23 05:11:45;;;;;;;;;;;;;;;8.63;49.99;103779.03;6212679;23;19915;-88
2023/01/23 05:14:10;;;;;;;;;;;;;;;8.63;50.08;103786.22;6211794;23;20167;-87
2023/01/23 05:16:36;;;;;;;;;;;;;;;8.63;49.85;103784.41;6211925;23;19908;-87
2023/01/23 05:19:01;;;;;;;;;;;;;;;8.63;50.05;103781.72;6211438;23;19916;-87
2023/01/23 05:21:26;;;;;;;;;;;;;;;8.64;50.06;103791.41;6212357;23;19915;-87
2023/01/23 05:23:52;;;;;;;;;;;;;;;8.62;49.97;103798.75;6233295;23;19918;-87
2023/01/23 05:26:20;;;;;;;;;;;;;;;8.55;49.51;103791.53;6214970;23;19920;-86
2023/01/23 05:28:45;;;;;;;;;;;;;;;8.52;50.11;103794.53;6215332;23;19961;-87
2023/01/23 05:31:11;;;;;;;;;;;;;;;8.47;49.82;103793.16;6242209;23;19915;-87
2023/01/23 05:33:39;;;;;;;;;;;;;;;8.46;49.99;103806.69;6242298;22;19908;-87
2023/01/23 05:36:04;;;;;;;;;;;;;;;8.46;50.19;103798.69;6242030;23;19912;-88
2023/01/23 05:38:30;;;;;;;;;;;;;;;8.50;50.40;103805.38;6241213;23;19915;-87
2023/01/23 05:40:55;;;;;;;;;;;;;;;8.50;50.13;103804.53;6240498;23;19907;-87
2023/01/23 05:43:20;;;;;;;;;;;;;;;8.50;49.68;103801.88;6240666;22;19911;-87
2023/01/23 05:45:46;;;;;;;;;;;;;;;8.48;49.77;103796.69;6240708;23;19918;-87
2023/01/23 05:48:11;;;;;;;;;;;;;;;8.48;50.13;103791.34;6213885;23;19907;-87
2023/01/23 05:50:36;;;;;;;;;;;;;;;8.49;50.21;103795.69;6241198;23;19907;-87
2023/01/23 05:53:03;;;;;;;;;;;;;;;8.52;50.09;103806.03;6240188;22;20259;-87
2023/01/23 05:55:28;;;;;;;;;;;;;;;8.54;50.05;103805.88;6240621;23;20248;-87
2023/01/23 05:57:54;;;;;;;;;;;;;;;8.55;50.01;103808.41;6240620;23;19907;-87
2023/01/23 06:00:19;;;;;;;;;;;;;;;8.55;49.91;103811.06;6241224;23;19915;-88
2023/01/23 06:02:46;;;;;;;;;;;;;;;8.53;49.91;103821.06;6240736;22;19939;-87
2023/01/23 06:05:11;;;;;;;;;;;;;;;8.53;49.99;103810.41;6240975;23;19915;-87
2023/01/23 06:07:37;;;;;;;;;;;;;;;8.53;49.99;103820.25;6241511;23;20067;-87
2023/01/23 06:10:03;;;;;;;;;;;;;;;8.53;49.66;103823.75;6241325;23;19908;-87
2023/01/23 06:12:28;;;;;;;;;;;;;;;8.55;49.94;103823.59;6241525;22;19908;-87
2023/01/23 06:14:54;;;;;;;;;;;;;;;8.54;49.61;103830.78;6240443;23;19907;-88
2023/01/23 06:17:19;;;;;;;;;;;;;;;8.54;49.94;103830.78;6238576;23;19907;-87
2023/01/23 06:19:45;;;;;;;;;;;;;;;8.54;49.53;103838.78;6238601;23;19978;-87
2023/01/23 06:22:10;;;;;;;;;;;;;;;8.50;49.77;103832.09;6239026;22;20160;-87
2023/01/23 06:24:35;;;;;;;;;;;;;;;8.45;49.64;103839.75;6238586;23;20331;-87
2023/01/23 06:27:03;;;;;;;;;;;;;;;8.43;50.09;103837.22;6239002;23;19957;-87
2023/01/23 06:29:30;;;;;;;;;;;;;;;8.44;49.75;103838.09;6239672;23;19919;-88
2023/01/23 06:31:56;;;;;;;;;;;;;;;8.45;49.82;103843.28;6240651;23;19907;-87
2023/01/23 06:34:21;;;;;;;;;;;;;;;8.47;49.98;103840.44;6240047;22;19969;-87
2023/01/23 06:36:47;;;;;;;;;;;;;;;8.44;49.83;103841.59;6213724;23;19908;-87
2023/01/23 06:39:14;;;;;;;;;;;;;;;8.44;49.67;103851.44;6240312;23;19919;-87
2023/01/23 06:41:39;;;;;;;;;;;;;;;8.43;49.94;103849.75;6241263;23;19915;-87
2023/01/23 06:44:05;;;;;;;;;;;;;;;8.41;49.94;103851.72;6240764;22;19907;-87
2023/01/23 06:46:30;;;;;;;;;;;;;;;8.41;50.11;103849.06;6214106;23;20101;-87
2023/01/23 06:48:56;;;;;;;;;;;;;;;8.43;50.12;103847.91;6239691;23;19908;-87
2023/01/23 06:51:21;;;;;;;;;;;;;;;8.44;49.98;103852.28;6241679;23;19907;-87
2023/01/23 06:53:46;;;;;;;;;;;;;;;8.44;49.76;103862.13;6240294;22;20244;-88
2023/01/23 06:56:12;;;;;;;;;;;;;;;8.42;49.95;103866.78;6240613;23;19914;-87
2023/01/23 06:58:37;;;;;;;;;;;;;;;8.39;49.75;103861.75;6239908;23;19957;-88
2023/01/23 07:01:10;;;;;;;;;;;;;;;8.37;49.86;103871.75;6240773;23;19908;-87
2023/01/23 07:03:36;;;;;;;;;;;;;;;8.36;49.89;103870.09;6240205;22;20271;-87
2023/01/23 07:06:05;;;;;;;;;;;;;;;8.37;50.06;103871.75;6240451;23;19946;-87
2023/01/23 07:08:34;;;;;;;;;;;;;;;8.39;49.97;103877.78;6239362;23;19987;-88
2023/01/23 07:11:00;;;;;;;;;;;;;;;8.37;49.90;103871.75;6240185;23;20177;-87
2023/01/23 07:13:25;;;;;;;;;;;;;;;8.35;49.88;103869.25;6241585;22;19907;-87
2023/01/23 07:15:50;;;;;;;;;;;;;;;8.36;50.08;103870.91;6243520;23;19969;-87
2023/01/23 07:18:16;;;;;;;;;;;;;;;8.38;50.04;103870.75;6244140;23;19914;-88
2023/01/23 07:20:45;;;;;;;;;;;;;;;8.40;49.88;103874.94;6244667;23;20072;-88
2023/01/23 07:23:10;;;;;;;;;;;;;;;8.41;50.12;103876.63;6243977;22;20343;-88
2023/01/23 07:25:36;;;;;;;;;;;;;;;8.43;49.72;103876.47;6243992;23;19969;-87
2023/01/23 07:28:02;;;;;;;;;;;;;;;8.43;49.99;103881.81;6243615;23;19930;-87
2023/01/23 07:30:28;;;;;;;;;;;;;;;8.43;50.00;103885.31;6244117;23;20403;-87
2023/01/23 07:32:53;;;;;;;;;;;;;;;8.43;49.95;103887.97;6244411;22;19908;-87
2023/01/23 07:35:19;;;;;;;;;;;;;;;8.45;49.88;103890.53;6244463;23;19947;-87
2023/01/23 07:37:45;;;;;;;;;;;;;;;8.44;49.90;103887.03;6243715;23;19999;-87
2023/01/23 07:40:11;;;;;;;;;;;;;;;8.45;49.94;103890.53;6216533;23;19911;-87
2023/01/23 07:42:36;;;;;;;;;;;;;;;8.47;49.56;103899.22;6243428;22;20461;-88
2023/01/23 07:45:02;;;;;;;;;;;;;;;8.47;49.83;103900.06;6243229;23;19923;-87
2023/01/23 07:47:27;;;;;;;;;;;;;;;8.49;50.00;103891.88;6216670;23;20350;-87
2023/01/23 07:49:52;;;;;;;;;;;;;;;8.50;49.71;103890.88;6244474;23;19907;-87
2023/01/23 07:52:18;;;;;;;;;;;;;;;8.51;49.83;103892.56;6244008;22;19953;-87
2023/01/23 07:54:43;;;;;;;;;;;;;;;8.53;49.86;103895.91;6244038;23;19915;-87
2023/01/23 07:57:09;;;;;;;;;;;;;;;8.53;49.65;103893.25;6243977;23;19918;-87
2023/01/23 07:59:34;;;;;;;;;;;;;;;8.52;49.81;103894.22;6243941;23;19907;-87
2023/01/23 08:01:59;;;;;;;;;;;;;;;8.52;49.63;103896.91;6243158;23;20319;-86
2023/01/23 08:04:25;;;;;;;;;;;;;;;8.54;49.82;103902.94;6243373;22;19997;-87
2023/01/23 08:06:50;;;;;;;;;;;;;;;8.56;49.57;103902.78;6244116;23;19957;-87
2023/01/23 08:09:16;;;;;;;;;;;;;;;8.56;49.54;103902.78;6243920;23;19907;-87
2023/01/23 08:11:41;;;;;;;;;;;;;;;8.56;49.27;103905.44;6243167;23;20285;-87
2023/01/23 08:14:06;;;;;;;;;;;;;;;8.56;49.43;103908.13;6216490;23;20108;-87
2023/01/23 08:16:32;;;;;;;;;;;;;;;8.57;49.44;103904.44;6242696;23;20416;-87
2023/01/23 08:18:57;;;;;;;;;;;;;;;8.58;49.30;103906.13;6215027;23;19923;-87
2023/01/23 08:21:22;;;;;;;;;;;;;;;8.59;49.71;103907.78;6243129;23;19930;-87
2023/01/23 08:23:48;;;;;;;;;;;;;;;8.60;49.58;103917.50;6243053;22;19933;-87
2023/01/23 08:26:14;;;;;;;;;;;;;;;8.60;49.71;103912.13;6243342;23;19939;-87
2023/01/23 08:28:41;;;;;;;;;;;;;;;8.60;49.58;103914.81;6242719;23;19994;-87
2023/01/23 08:31:08;;;;;;;;;;;;;;;8.61;49.66;103920.00;6215605;23;19907;-87
2023/01/23 08:33:33;;;;;;;;;;;;;;;8.61;49.63;103914.66;6242878;22;19986;-87
2023/01/23 08:35:59;;;;;;;;;;;;;;;8.63;49.56;103919.88;6244099;23;19915;-87
2023/01/23 08:38:25;;;;;;;;;;;;;;;8.64;49.28;103919.72;6241967;23;19908;-87
2023/01/23 08:40:51;;;;;;;;;;;;;;;8.68;49.61;103925.56;6243230;23;19911;-87
2023/01/23 08:43:17;;;;;;;;;;;;;;;8.68;49.56;103921.06;6242514;22;19915;-87
2023/01/23 08:45:47;;;;;;;;;;;;;;;8.69;49.38;103925.41;6244040;23;20315;-87
2023/01/23 08:48:12;;;;;;;;;;;;;;;8.71;49.47;103930.59;6241969;23;19908;-87
2023/01/23 08:50:37;;;;;;;;;;;;;;;8.71;49.23;103931.44;6242583;23;20236;-87
2023/01/23 08:53:03;;;;;;;;;;;;;;;8.72;49.53;103926.94;6241115;22;19908;-87
2023/01/23 08:55:29;;;;;;;;;;;;;;;8.73;49.27;103937.47;6242165;23;19907;-87
2023/01/23 08:57:54;;;;;;;;;;;;;;;8.75;49.52;103935.47;6243713;23;19924;-87
2023/01/23 09:00:41;;;;;;;;;;;;;;;8.77;49.11;103932.63;6242426;23;19907;-87
2023/01/23 09:03:07;;;;;;;;;;;;;;;8.76;48.69;103931.78;6242333;22;19961;-87
2023/01/23 09:05:33;;;;;;;;;;;;;;;8.76;48.84;103937.13;6242459;23;19915;-87
2023/01/23 09:07:58;;;;;;;;;;;;;;;8.78;49.31;103932.47;6242072;23;19930;-87
2023/01/23 09:10:24;;;;;;;;;;;;;;;8.79;49.24;103936.81;6243438;23;19962;-87
2023/01/23 09:12:50;;;;;;;;;;;;;;;8.79;49.13;103936.81;6243052;22;19908;-87
2023/01/23 09:15:16;;;;;;;;;;;;;;;8.81;49.17;103938.53;6241956;23;19914;-86
2023/01/23 09:17:44;;;;;;;;;;;;;;;8.76;48.89;103933.63;6243073;23;19923;-87
2023/01/23 09:20:09;;;;;;;;;;;;;;;8.75;48.98;103939.97;6242652;23;19942;-87
2023/01/23 09:22:35;;;;;;;;;;;;;;;8.74;49.12;103939.13;6242505;22;20151;-87
2023/01/23 09:25:00;;;;;;;;;;;;;;;8.75;49.21;103939.97;6242320;23;19911;-87
2023/01/23 09:27:26;;;;;;;;;;;;;;;8.77;49.18;103949.50;6242864;23;19908;-87
2023/01/23 09:29:51;;;;;;;;;;;;;;;8.79;48.92;103939.50;6242745;23;19957;-87
2023/01/23 09:32:17;;;;;;;;;;;;;;;8.81;49.06;103949.22;6242890;22;19957;-87
2023/01/23 09:34:42;;;;;;;;;;;;;;;8.85;49.32;103950.56;6242372;23;20371;-87
2023/01/23 09:37:07;;;;;;;;;;;;;;;8.84;49.13;103954.25;6243030;23;19951;-87
2023/01/23 09:39:33;;;;;;;;;;;;;;;8.87;49.37;103959.28;6241383;23;20335;-87
2023/01/23 09:42:03;;;;;;;;;;;;;;;8.90;48.91;103965.13;6242048;23;19908;-86
2023/01/23 09:44:39;;;;;;;;;;;;;;;8.92;49.06;103962.31;6241634;22;19914;-87
2023/01/23 09:47:09;;;;;;;;;;;;;;;8.87;48.51;103967.28;6240576;23;19994;-87
2023/01/23 09:49:48;;;;;;;;;;;;;;;8.87;49.08;103970.81;6241642;23;19914;-87
2023/01/23 09:52:16;;;;;;;;;;;;;;;8.89;48.93;103984.00;6240138;22;19907;-87
2023/01/23 09:54:43;;;;;;;;;;;;;;;8.89;48.93;103990.19;6242660;23;20292;-87
2023/01/23 09:57:21;;;;;;;;;;;;;;;8.93;49.19;103985.38;6241182;23;19911;-87
2023/01/23 09:59:58;;;;;;;;;;;;;;;8.94;49.09;103984.38;6241769;23;19912;-87
2023/01/23 10:02:24;;;;;;;;;;;;;;;8.97;49.13;103981.38;6241951;22;19985;-87
2023/01/23 10:04:50;;;;;;;;;;;;;;;9.01;48.85;103993.47;6241550;23;20331;-87
2023/01/23 10:07:34;;;;;;;;;;;;;;;9.02;49.02;103989.78;6242040;23;19954;-87
2023/01/23 10:10:12;;;;;;;;;;;;;;;9.03;49.03;103991.47;6242241;23;19978;-87
2023/01/23 10:12:50;;;;;;;;;;;;;;;9.05;49.10;103989.47;6241228;22;19926;-87
2023/01/23 10:15:19;;;;;;;;;;;;;;;9.08;48.91;103999.84;6242255;23;19908;-87
2023/01/23 10:17:51;;;;;;;;;;;;;;;9.12;48.93;103998.50;6242423;23;20059;-87
2023/01/23 10:20:24;;;;;;;;;;;;;;;9.16;48.69;103991.88;6242420;23;19953;-87
2023/01/23 10:23:08;;;;;;;;;;;;;;;9.13;48.36;103996.69;6241770;22;20118;-88
2023/01/23 10:25:36;;;;;;;;;;;;;;;9.10;48.81;104005.88;6239954;23;20331;-87
2023/01/23 10:28:23;;;;;;;;;;;;;;;9.13;48.70;103999.34;6240423;23;19954;-86
2023/01/23 10:30:50;;;;;;;;;;;;;;;9.16;48.98;104005.25;6240952;23;19907;-87
2023/01/23 10:33:17;;;;;;;;;;;;;;;9.17;48.49;103998.91;6239303;22;20331;-87
2023/01/23 10:35:49;;;;;;;;;;;;;;;9.20;48.75;104008.44;6239655;23;20204;-87
2023/01/23 10:38:34;;;;;;;;;;;;;;;9.17;48.46;104016.78;6239759;23;19907;-87
2023/01/23 10:41:18;;;;;;;;;;;;;;;9.16;48.50;104015.13;6239870;23;19911;-87
2023/01/23 10:43:46;;;;;;;;;;;;;;;9.18;48.84;104011.28;6240797;22;19935;-87
2023/01/23 10:46:18;;;;;;;;;;;;;;;9.22;48.71;104014.47;6240270;23;20015;-87
2023/01/23 10:48:48;;;;;;;;;;;;;;;9.23;48.80;104011.63;6240430;23;19992;-87
2023/01/23 10:51:24;;;;;;;;;;;;;;;9.24;48.69;104015.13;6239917;23;19908;-87
2023/01/23 10:54:11;;;;;;;;;;;;;;;9.27;48.42;104015.66;6239263;22;19957;-86
2023/01/23 10:56:45;;;;;;;;;;;;;;;9.26;48.62;104022.00;6239627;23;20157;-86
2023/01/23 10:59:18;;;;;;;;;;;;;;;9.27;48.88;104021.00;6239629;23;19916;-87
2023/01/23 11:01:53;;;;;;;;;;;;;;;9.29;48.49;104013.66;6240615;23;19973;-87
2023/01/23 11:04:20;;;;;;;;;;;;;;;9.33;48.68;104017.69;6238936;22;19915;-87
2023/01/23 11:06:59;;;;;;;;;;;;;;;9.36;48.51;104020.06;6240014;23;19908;-87
2023/01/23 11:09:25;;;;;;;;;;;;;;;9.41;48.38;104016.06;6239577;23;20328;-86
2023/01/23 11:12:03;;;;;;;;;;;;;;;9.42;48.51;104015.91;6240451;23;19985;-87
2023/01/23 11:14:30;;;;;;;;;;;;;;;9.44;48.21;104016.56;6234292;22;19918;-86
2023/01/23 11:17:34;;;;;;;;;;;;;;;9.45;48.28;104012.88;6236397;23;19911;-87
2023/01/23 11:20:09;;;;;;;;;;;;;;;9.45;48.39;104004.88;6114559;23;19913;-86
2023/01/23 11:22:38;;;;;;;;;;;;;;;9.46;48.31;104008.38;6115003;23;19921;-87
2023/01/23 11:25:23;;;;;;;;;;;;;;;9.45;48.28;104010.22;6181280;23;19916;-87
2023/01/23 11:28:01;;;;;;;;;;;;;;;9.45;48.31;104012.06;6236584;23;19927;-87
2023/01/23 11:30:48;;;;;;;;;;;;;;;9.44;48.21;104005.03;6235780;23;20236;-87
2023/01/23 11:33:21;;;;;;;;;;;;;;;9.40;48.15;104004.53;6236709;22;20014;-87
2023/01/23 11:35:50;;;;;;;;;;;;;;;9.42;48.24;103996.31;6237443;23;19908;-87
2023/01/23 11:38:20;;;;;;;;;;;;;;;9.40;47.98;104001.84;6237397;23;20395;-87
2023/01/23 11:40:46;;;;;;;;;;;;;;;9.43;48.31;103998.84;6237932;23;19998;-87
2023/01/23 11:43:13;;;;;;;;;;;;;;;9.44;48.31;103999.66;6238425;22;20556;-87
2023/01/23 11:45:57;;;;;;;;;;;;;;;9.44;47.95;103999.66;6236414;23;19939;-87
2023/01/23 11:48:31;;;;;;;;;;;;;;;9.44;48.04;104007.69;6237895;23;19990;-87
2023/01/23 11:51:20;;;;;;;;;;;;;;;9.44;48.19;103999.66;6238791;23;20324;-87
2023/01/23 11:53:53;;;;;;;;;;;;;;;9.42;48.46;104002.50;6237644;22;19912;-87
2023/01/23 11:56:38;;;;;;;;;;;;;;;9.44;48.08;103988.97;6238953;23;20414;-87
2023/01/23 11:59:13;;;;;;;;;;;;;;;9.48;48.10;103991.16;6238772;23;19912;-87
2023/01/23 12:01:41;;;;;;;;;;;;;;;9.49;48.03;103983.97;6240152;23;19911;-87
2023/01/23 12:04:19;;;;;;;;;;;;;;;9.52;48.18;103981.00;6240074;22;19958;-87
2023/01/23 12:07:00;;;;;;;;;;;;;;;9.53;48.04;103975.47;6240065;23;19966;-87
2023/01/23 12:09:31;;;;;;;;;;;;;;;9.51;48.03;103979.28;6239628;23;19927;-87
2023/01/23 12:12:02;;;;;;;;;;;;;;;9.45;47.82;103975.41;6240041;23;19920;-86
2023/01/23 12:14:34;;;;;;;;;;;;;;;9.46;48.21;103976.25;6239760;22;19918;-87
2023/01/23 12:16:59;;;;;;;;;;;;;;;9.48;48.31;103980.44;6239164;23;20332;-87
2023/01/23 12:19:43;;;;;;;;;;;;;;;9.48;47.53;103974.25;6238981;23;19918;-87
2023/01/23 12:22:17;;;;;;;;;;;;;;;9.43;47.98;103976.59;6239948;23;19914;-87
2023/01/23 12:24:49;;;;;;;;;;;;;;;9.42;47.83;103977.59;6238957;23;20115;-87
2023/01/23 12:27:20;;;;;;;;;;;;;;;9.44;47.98;103972.91;6239332;23;19931;-86
2023/01/23 12:30:08;;;;;;;;;;;;;;;9.40;47.63;103967.06;6237147;23;19911;-87
2023/01/23 12:32:52;;;;;;;;;;;;;;;9.37;47.75;103967.38;6239757;22;19911;-87
2023/01/23 12:35:26;;;;;;;;;;;;;;;9.37;47.91;103967.38;6239073;23;20323;-87
2023/01/23 12:38:10;;;;;;;;;;;;;;;9.41;47.94;103967.88;6239192;23;19911;-87
2023/01/23 12:40:58;;;;;;;;;;;;;;;9.41;47.95;103968.72;6239776;23;19911;-87
2023/01/23 12:43:33;;;;;;;;;;;;;;;9.45;47.70;103969.22;6182282;22;19907;-87
2023/01/23 12:46:08;;;;;;;;;;;;;;;9.45;48.18;103963.88;6238910;23;19915;-87
2023/01/23 12:48:38;;;;;;;;;;;;;;;9.46;47.88;103970.91;6238734;23;19913;-87
2023/01/23 12:51:13;;;;;;;;;;;;;;;9.48;47.86;103968.91;6239737;23;19912;-87
2023/01/23 12:53:40;;;;;;;;;;;;;;;9.47;47.77;103967.22;6238894;22;19908;-87
2023/01/23 12:56:06;;;;;;;;;;;;;;;9.47;48.01;103968.06;6240275;23;19969;-87
2023/01/23 12:58:34;;;;;;;;;;;;;;;9.49;47.85;103965.22;6238976;23;19915;-87
2023/01/23 13:01:14;;;;;;;;;;;;;;;9.51;47.98;103963.22;6239520;23;20394;-87